Time;durP1;ratioP1;P1;durP2;ratioP2;P2;SDS_P1;SDS_P2;PMS_P1;PMS_P2;Temp;Humidity;BMP_temperature;BMP_pressure;BME280_temperature;BME280_humidity;BME280_pressure;Samples;Min_cycle;Max_cycle;Signal;HPM_P1;HPM_P2
2023/01/12 00:01:21;;;;;;;8.77;7.87;;;;;;;8.52;74.75;99604.06;5114654;28;20197;-55
2023/01/12 00:03:48;;;;;;;10.55;9.55;;;;;;;8.55;74.94;99588.78;5113480;28;20434;-55
2023/01/12 00:06:15;;;;;;;9.73;8.73;;;;;;;8.75;73.69;99607.22;5114620;28;20194;-55
2023/01/12 00:08:42;;;;;;;8.53;7.63;;;;;;;8.75;72.97;99607.22;5114464;28;20607;-55
2023/01/12 00:11:09;;;;;;;8.83;7.67;;;;;;;8.74;72.61;99602.91;5107251;28;20187;-55
2023/01/12 00:13:35;;;;;;;10.48;9.48;;;;;;;8.71;73.34;99607.97;5108727;28;20445;-56
2023/01/12 00:18:50;;;;;;;9.30;8.30;;;;;;;8.75;72.93;99620.91;5114300;28;20572;-54
2023/01/12 00:21:17;;;;;;;8.67;7.77;;;;;;;8.72;72.75;99618.25;5114620;28;20193;-54
2023/01/12 00:23:44;;;;;;;10.43;8.60;;;;;;;8.69;73.31;99612.19;5114514;28;20193;-55
2023/01/12 00:26:11;;;;;;;8.37;7.50;;;;;;;8.71;72.59;99623.34;5113151;28;20198;-55
2023/01/12 00:28:39;;;;;;;9.10;7.83;;;;;;;8.73;72.56;99625.13;5114164;28;20186;-55
2023/01/12 00:31:08;;;;;;;9.90;8.90;;;;;;;8.75;73.16;99628.59;5106168;28;20243;-55
2023/01/12 00:33:36;;;;;;;8.60;7.63;;;;;;;8.76;72.77;99634.59;5097631;28;20222;-54
2023/01/12 00:36:04;;;;;;;11.77;9.33;;;;;;;8.82;72.66;99629.59;5093474;28;20187;-54
2023/01/12 00:38:32;;;;;;;9.93;8.63;;;;;;;8.80;72.59;99637.25;5094115;28;20198;-55
2023/01/12 00:41:05;;;;;;;10.07;8.30;;;;;;;8.82;72.00;99640.72;5105710;28;20213;-55
2023/01/12 00:46:18;;;;;;;9.30;8.03;;;;;;;8.78;72.01;99641.47;5097731;28;20227;-55
2023/01/12 00:48:44;;;;;;;9.97;8.87;;;;;;;8.81;72.11;99633.00;5097004;28;20202;-55
2023/01/12 00:51:11;;;;;;;8.77;7.87;;;;;;;8.81;71.76;99639.00;5093291;28;20657;-55
2023/01/12 00:53:38;;;;;;;8.73;7.83;;;;;;;8.81;71.64;99635.56;5093244;28;20221;-55
2023/01/12 00:56:06;;;;;;;10.77;8.40;;;;;;;8.70;71.78;99632.75;5093274;28;20191;-55
2023/01/12 00:58:32;;;;;;;9.30;8.40;;;;;;;8.71;72.62;99639.56;5093301;28;20218;-55
2023/01/12 01:01:06;;;;;;;9.40;8.03;;;;;;;8.68;72.23;99636.94;5093249;28;20190;-55
2023/01/12 01:03:34;;;;;;;8.97;8.07;;;;;;;8.69;71.96;99637.81;5093339;28;20565;-54
2023/01/12 01:06:02;;;;;;;9.60;8.27;;;;;;;8.67;71.78;99637.78;5093018;28;20650;-54
2023/01/12 01:08:29;;;;;;;8.80;7.90;;;;;;;8.66;72.27;99636.03;5098524;28;20274;-54
2023/01/12 01:11:01;;;;;;;10.47;8.37;;;;;;;8.66;72.53;99642.84;5112965;28;20189;-56
2023/01/12 01:13:28;;;;;;;12.37;9.03;;;;;;;8.62;72.67;99643.59;5113267;28;20282;-55
2023/01/12 01:15:55;;;;;;;10.40;9.33;;;;;;;8.64;72.71;99645.38;5113292;28;20194;-55
2023/01/12 01:18:21;;;;;;;9.27;7.97;;;;;;;8.58;72.33;99645.22;5113269;28;20189;-55
2023/01/12 01:20:50;;;;;;;11.13;10.02;;;;;;;8.61;72.98;99646.97;5112071;28;20431;-56
2023/01/12 01:23:16;;;;;;;10.37;9.27;;;;;;;8.65;72.43;99647.09;5112832;28;20664;-56
2023/01/12 01:25:43;;;;;;;11.00;8.43;;;;;;;8.65;72.35;99652.22;5100786;27;20190;-54
2023/01/12 01:28:10;;;;;;;9.23;8.17;;;;;;;8.63;72.69;99647.88;5103480;28;20193;-55
2023/01/12 01:30:37;;;;;;;10.88;9.60;;;;;;;8.63;72.61;99642.75;5112025;28;20430;-54
2023/01/12 01:33:04;;;;;;;9.73;7.97;;;;;;;8.58;72.25;99634.97;5112993;28;20225;-54
2023/01/12 01:35:31;;;;;;;11.33;8.13;;;;;;;8.66;72.49;99646.28;5111901;28;20192;-55
2023/01/12 01:38:05;;;;;;;9.40;8.37;;;;;;;8.64;71.99;99645.38;5113548;28;20193;-55
2023/01/12 01:40:33;;;;;;;8.47;7.60;;;;;;;8.66;71.30;99641.16;5113248;28;20190;-55
2023/01/12 01:43:00;;;;;;;7.60;6.77;;;;;;;8.58;71.45;99634.97;5103083;28;20202;-55
2023/01/12 01:45:27;;;;;;;8.97;7.77;;;;;;;8.56;71.76;99640.88;5092315;28;20186;-56
2023/01/12 01:48:00;;;;;;;8.73;7.23;;;;;;;8.56;71.53;99641.75;5092073;28;20187;-56
2023/01/12 01:50:32;;;;;;;7.87;7.07;;;;;;;8.47;71.94;99635.50;5093012;28;20191;-55
2023/01/12 01:53:02;;;;;;;8.40;7.47;;;;;;;8.51;72.02;99637.34;5092029;28;20225;-54
2023/01/12 01:55:35;;;;;;;8.97;7.60;;;;;;;8.42;72.02;99631.97;5092515;28;20259;-54
2023/01/12 01:58:06;;;;;;;8.68;7.78;;;;;;;8.46;72.64;99631.22;5092026;28;20436;-54
2023/01/12 02:00:33;;;;;;;7.70;6.90;;;;;;;8.42;73.46;99632.84;5092182;28;20722;-54
2023/01/12 02:03:03;;;;;;;8.33;7.43;;;;;;;8.39;74.14;99631.88;5091930;28;20718;-55
2023/01/12 02:05:30;;;;;;;7.83;7.03;;;;;;;8.33;74.16;99624.91;5091918;28;20196;-54
2023/01/12 02:08:02;;;;;;;7.82;7.03;;;;;;;8.37;74.18;99629.28;5092430;28;20791;-54
2023/01/12 02:10:31;;;;;;;7.57;6.80;;;;;;;8.34;74.96;99626.66;5101547;28;20194;-54
2023/01/12 02:18:45;;;;;;;7.50;6.60;;;;;;;8.35;74.86;99630.06;5091889;28;20186;-54
2023/01/12 02:21:25;;;;;;;6.27;5.67;;;;;;;8.41;74.15;99631.09;5092212;28;20195;-54
2023/01/12 02:24:38;;;;;;;10.30;6.63;;;;;;;8.30;74.20;99624.81;5092288;28;20186;-54
2023/01/12 02:27:35;;;;;;;6.33;5.60;;;;;;;8.24;73.81;99640.84;5092158;28;20214;-54
2023/01/12 02:30:47;;;;;;;6.43;5.83;;;;;;;8.09;74.07;99624.19;5091878;28;20186;-54
2023/01/12 02:33:33;;;;;;;6.40;5.77;;;;;;;8.19;74.20;99636.41;5091661;28;20301;-54
2023/01/12 02:36:10;;;;;;;6.13;5.40;;;;;;;8.23;74.97;99641.69;5091946;28;20198;-54
2023/01/12 02:38:41;;;;;;;6.87;6.00;;;;;;;8.28;75.24;99637.59;5092378;28;20197;-54
2023/01/12 02:42:39;;;;;;;6.70;6.00;;;;;;;8.32;75.38;99635.97;5092189;28;20191;-55
2023/01/12 02:44:09;;;;;;;7.33;5.67;;;;;;;8.40;75.32;99624.25;5091703;28;20259;-55
2023/01/12 02:46:39;;;;;;;8.40;6.07;;;;;;;8.39;75.40;99632.75;5091790;28;20198;-55
2023/01/12 02:49:12;;;;;;;7.37;6.57;;;;;;;8.33;75.29;99632.56;5092450;28;20566;-55
2023/01/12 02:51:43;;;;;;;6.80;6.10;;;;;;;8.29;75.89;99634.19;5091596;28;20191;-55
2023/01/12 02:54:13;;;;;;;6.23;5.63;;;;;;;8.30;76.25;99623.13;5091458;28;20218;-54
2023/01/12 02:56:44;;;;;;;6.83;5.97;;;;;;;8.30;76.10;99629.94;5091595;28;20222;-55
2023/01/12 02:59:16;;;;;;;6.27;5.67;;;;;;;8.30;76.18;99624.81;5099764;28;20191;-55
2023/01/12 03:01:47;;;;;;;6.80;6.10;;;;;;;8.21;76.10;99614.31;5111779;28;20204;-55
2023/01/12 03:04:16;;;;;;;6.60;5.90;;;;;;;8.28;75.93;99634.16;5111764;28;20202;-54
2023/01/12 03:06:46;;;;;;;6.43;5.77;;;;;;;8.27;76.33;99632.41;5103944;28;20573;-55
2023/01/12 03:09:16;;;;;;;5.87;5.27;;;;;;;8.27;75.67;99633.28;5110383;28;20283;-55
2023/01/12 03:11:47;;;;;;;6.50;5.90;;;;;;;8.28;75.79;99636.72;5111907;28;20640;-55
2023/01/12 03:14:16;;;;;;;6.50;5.90;;;;;;;8.22;76.20;99633.94;5111666;28;20217;-55
2023/01/12 03:16:43;;;;;;;5.60;5.07;;;;;;;8.18;76.69;99635.56;5112383;28;20214;-54
2023/01/12 03:19:15;;;;;;;6.50;5.67;;;;;;;8.21;76.72;99639.91;5102859;28;20195;-55
2023/01/12 03:21:53;;;;;;;5.77;5.27;;;;;;;8.22;76.47;99636.50;5091283;28;20660;-54
2023/01/12 03:24:25;;;;;;;7.28;6.13;;;;;;;8.29;76.39;99643.56;5091208;28;20945;-55
2023/01/12 03:26:59;;;;;;;6.30;5.70;;;;;;;8.28;76.51;99639.25;5094757;28;20198;-55
2023/01/12 03:29:33;;;;;;;6.33;5.73;;;;;;;8.30;76.35;99640.16;5113292;28;20213;-57
2023/01/12 03:32:00;;;;;;;5.63;5.13;;;;;;;8.34;76.36;99636.00;5115534;28;20194;-55
2023/01/12 03:34:28;;;;;;;6.07;5.07;;;;;;;8.36;76.37;99645.47;5096458;28;20219;-55
2023/01/12 03:37:03;;;;;;;6.80;5.70;;;;;;;8.32;77.44;99643.66;5094621;28;20205;-54
2023/01/12 03:39:41;;;;;;;5.80;5.30;;;;;;;8.31;77.98;99644.47;5095153;28;20191;-54
2023/01/12 03:42:13;;;;;;;7.47;6.00;;;;;;;8.28;79.02;99649.50;5100804;28;20522;-54
2023/01/12 03:44:46;;;;;;;6.83;5.87;;;;;;;8.25;79.20;99645.13;5115188;28;20208;-54
2023/01/12 03:47:17;;;;;;;6.07;5.47;;;;;;;8.23;79.81;99648.47;5115177;28;20204;-55
2023/01/12 03:49:47;;;;;;;7.97;6.17;;;;;;;8.24;80.85;99648.50;5115059;28;20186;-55
2023/01/12 03:52:17;;;;;;;8.00;6.67;;;;;;;8.21;81.35;99648.41;5115473;28;20583;-55
2023/01/12 03:54:48;;;;;;;6.23;5.50;;;;;;;8.20;80.56;99643.28;5115458;28;20255;-55
2023/01/12 03:57:15;;;;;;;7.03;6.33;;;;;;;8.22;81.68;99642.50;5113731;28;20286;-55
2023/01/12 03:59:42;;;;;;;6.73;6.03;;;;;;;8.17;81.62;99646.63;5114962;28;20372;-55
2023/01/12 04:02:09;;;;;;;7.10;6.27;;;;;;;8.19;81.93;99644.09;5114688;28;20194;-55
2023/01/12 04:04:36;;;;;;;6.60;5.67;;;;;;;8.17;81.08;99648.31;5114738;28;20289;-55
2023/01/12 04:07:03;;;;;;;6.13;5.53;;;;;;;8.12;81.28;99647.31;5115188;28;20187;-55
2023/01/12 04:09:31;;;;;;;6.70;5.53;;;;;;;8.08;81.30;99654.03;5114863;28;20186;-55
2023/01/12 04:12:10;;;;;;;6.40;5.80;;;;;;;8.08;81.75;99650.59;5111042;28;20194;-55
2023/01/12 04:14:37;;;;;;;5.97;5.40;;;;;;;8.10;81.23;99654.09;5094275;28;20225;-55
2023/01/12 04:17:04;;;;;;;5.90;5.30;;;;;;;8.12;80.96;99650.75;5094899;28;20190;-55
2023/01/12 04:19:31;;;;;;;6.00;5.40;;;;;;;8.12;81.34;99653.31;5094090;28;20195;-55
2023/01/12 04:24:43;;;;;;;7.13;5.87;;;;;;;8.05;81.82;99656.50;5094389;28;20198;-55
2023/01/12 04:27:10;;;;;;;6.43;5.47;;;;;;;8.12;81.44;99662.66;5094069;28;20187;-55
2023/01/12 04:29:37;;;;;;;6.30;5.70;;;;;;;8.13;79.86;99665.25;5094056;28;20202;-56
2023/01/12 04:32:04;;;;;;;7.13;5.60;;;;;;;8.17;79.67;99661.09;5099799;28;20194;-54
2023/01/12 04:34:31;;;;;;;7.38;6.03;;;;;;;8.04;78.67;99630.88;5113561;28;20438;-55
2023/01/12 04:36:58;;;;;;;6.50;5.87;;;;;;;8.28;78.07;99667.41;5113613;28;20195;-55
2023/01/12 04:39:25;;;;;;;7.10;5.70;;;;;;;8.20;77.28;99664.63;5114180;28;20198;-56
2023/01/12 04:41:53;;;;;;;6.13;5.27;;;;;;;8.27;77.00;99671.66;5113676;28;20652;-55
2023/01/12 04:44:20;;;;;;;6.95;6.25;;;;;;;8.27;77.34;99671.66;5113784;28;20430;-55
2023/01/12 04:46:48;;;;;;;6.33;5.73;;;;;;;8.30;77.72;99669.19;5113873;28;20247;-55
2023/01/12 04:49:15;;;;;;;5.17;4.67;;;;;;;7.98;76.32;99615.34;5114030;28;20197;-55
2023/01/12 04:51:42;;;;;;;7.20;5.63;;;;;;;8.28;76.97;99673.41;5114119;28;20186;-55
2023/01/12 04:54:09;;;;;;;6.83;6.13;;;;;;;8.30;77.36;99676.00;5113775;28;20216;-56
2023/01/12 04:56:36;;;;;;;7.13;6.10;;;;;;;8.30;76.59;99668.31;5110701;28;20271;-56
2023/01/12 04:59:06;;;;;;;5.93;5.10;;;;;;;7.77;76.60;99586.63;5113739;28;20619;-55
2023/01/12 05:01:32;;;;;;;6.60;5.50;;;;;;;8.41;75.89;99676.28;5093450;28;20632;-55
2023/01/12 05:04:00;;;;;;;7.30;5.30;;;;;;;8.37;76.06;99684.72;5093165;28;20675;-55
2023/01/12 05:06:27;;;;;;;5.77;5.13;;;;;;;8.42;75.92;99678.91;5093228;28;20187;-55
2023/01/12 05:11:39;;;;;;;6.50;5.47;;;;;;;8.35;74.97;99682.13;5093143;28;20201;-55
2023/01/12 05:14:07;;;;;;;5.70;5.10;;;;;;;8.30;75.15;99678.56;5092981;28;20222;-54
2023/01/12 05:16:34;;;;;;;8.60;6.20;;;;;;;8.35;75.43;99687.22;5092969;28;20598;-54
2023/01/12 05:19:01;;;;;;;5.40;4.90;;;;;;;8.36;75.82;99688.09;5092688;28;20194;-55
2023/01/12 05:21:27;;;;;;;6.97;6.27;;;;;;;8.35;76.09;99694.91;5092788;28;20210;-55
2023/01/12 05:23:54;;;;;;;6.40;5.80;;;;;;;8.37;76.09;99692.41;5092892;28;20191;-55
2023/01/12 05:26:21;;;;;;;6.93;6.23;;;;;;;8.36;76.45;99691.53;5092815;28;20187;-56
2023/01/12 05:28:49;;;;;;;9.57;6.80;;;;;;;8.37;76.88;99689.84;5092773;28;20191;-55
2023/01/12 05:31:18;;;;;;;7.40;6.17;;;;;;;8.35;76.84;99689.78;5092917;28;20279;-55
2023/01/12 05:33:45;;;;;;;6.70;6.10;;;;;;;8.27;77.29;99686.16;5092530;28;20689;-55
2023/01/12 05:36:14;;;;;;;7.97;6.47;;;;;;;8.32;76.93;99692.28;5092545;28;20194;-55
2023/01/12 05:38:41;;;;;;;7.93;6.70;;;;;;;8.33;76.42;99694.00;5092737;28;20194;-54
2023/01/12 05:41:09;;;;;;;8.13;6.63;;;;;;;8.32;76.25;99696.53;5092573;28;20252;-55
2023/01/12 05:43:50;;;;;;;8.13;6.83;;;;;;;8.35;76.16;99705.16;5092628;28;20225;-55
2023/01/12 05:46:20;;;;;;;7.83;5.87;;;;;;;8.37;76.03;99694.97;5092467;28;20277;-55
2023/01/12 05:48:48;;;;;;;6.50;5.53;;;;;;;8.22;75.74;99680.00;5093125;28;20201;-55
2023/01/12 05:51:15;;;;;;;10.90;5.97;;;;;;;8.30;75.47;99696.47;5092176;28;20267;-55
2023/01/12 05:53:42;;;;;;;8.33;6.70;;;;;;;8.27;75.34;99696.41;5092036;28;20217;-55
2023/01/12 05:56:11;;;;;;;6.93;5.87;;;;;;;8.22;75.79;99700.47;5092150;28;20546;-56
2023/01/12 05:58:38;;;;;;;7.10;6.37;;;;;;;8.18;75.93;99703.78;5107612;28;20190;-55
2023/01/12 06:01:08;;;;;;;7.67;6.07;;;;;;;8.01;75.89;99679.41;5105648;28;20183;-55
2023/01/12 06:03:36;;;;;;;8.57;6.23;;;;;;;8.17;76.35;99707.16;5112493;28;20193;-55
2023/01/12 06:06:04;;;;;;;7.57;6.82;;;;;;;8.17;75.95;99705.47;5091196;28;20489;-56
2023/01/12 06:08:31;;;;;;;6.27;5.67;;;;;;;8.25;75.42;99700.56;5092066;28;20732;-56
2023/01/12 06:11:01;;;;;;;7.00;6.17;;;;;;;8.22;75.24;99695.38;5091914;28;20680;-55
2023/01/12 06:16:11;;;;;;;9.07;6.23;;;;;;;8.10;75.52;99697.59;5092102;28;20186;-55
2023/01/12 06:18:40;;;;;;;6.93;6.27;;;;;;;8.07;76.07;99706.03;5092005;28;20281;-55
2023/01/12 06:21:09;;;;;;;7.17;5.60;;;;;;;8.12;76.02;99706.16;5091836;28;20198;-56
2023/01/12 06:23:36;;;;;;;7.17;6.33;;;;;;;8.15;76.87;99702.03;5108929;28;20288;-55
2023/01/12 06:26:03;;;;;;;6.73;6.13;;;;;;;8.23;75.98;99710.78;5104922;28;20213;-55
2023/01/12 06:28:30;;;;;;;6.43;5.83;;;;;;;8.26;75.61;99720.25;5101533;28;20193;-55
2023/01/12 06:30:58;;;;;;;7.68;6.97;;;;;;;8.17;75.97;99702.03;5110313;28;20443;-56
2023/01/12 06:33:26;;;;;;;8.50;6.70;;;;;;;8.32;75.76;99725.56;5111970;28;20214;-55
2023/01/12 06:35:55;;;;;;;6.40;5.80;;;;;;;8.40;75.05;99725.78;5111766;28;20197;-55
2023/01/12 06:38:25;;;;;;;7.47;6.67;;;;;;;8.44;75.23;99725.03;5112117;28;20194;-54
2023/01/12 06:40:52;;;;;;;7.60;6.77;;;;;;;8.47;74.96;99731.13;5112058;28;20190;-56
2023/01/12 06:43:19;;;;;;;8.07;7.27;;;;;;;8.44;75.83;99727.59;5111538;28;20196;-56
2023/01/12 06:45:46;;;;;;;8.20;6.87;;;;;;;8.46;75.78;99731.94;5112001;28;20190;-56
2023/01/12 06:48:13;;;;;;;8.67;7.27;;;;;;;8.49;75.97;99737.13;5112439;28;20187;-56
2023/01/12 06:50:39;;;;;;;7.00;6.30;;;;;;;8.50;75.30;99738.88;5112388;28;20194;-56
2023/01/12 06:53:08;;;;;;;8.77;6.50;;;;;;;8.53;75.34;99741.53;5108717;28;20194;-56
2023/01/12 06:55:35;;;;;;;8.43;6.90;;;;;;;8.62;74.88;99735.81;5107504;28;20246;-56
2023/01/12 06:58:06;;;;;;;7.97;7.17;;;;;;;8.62;74.95;99741.81;5112352;28;20221;-55
2023/01/12 07:00:33;;;;;;;8.13;6.83;;;;;;;8.59;74.70;99734.03;5112115;28;20196;-56
2023/01/12 07:03:00;;;;;;;7.67;6.87;;;;;;;8.65;74.73;99735.91;5112277;28;20656;-56
2023/01/12 07:05:26;;;;;;;7.07;6.33;;;;;;;8.54;74.62;99725.31;5112205;28;20198;-57
2023/01/12 07:08:02;;;;;;;9.10;6.63;;;;;;;8.69;74.15;99742.81;5112191;28;20193;-56
2023/01/12 07:10:31;;;;;;;10.40;6.90;;;;;;;8.69;74.33;99740.25;5121675;27;20193;-55
2023/01/12 07:13:00;;;;;;;7.47;6.60;;;;;;;8.69;74.07;99743.69;5119263;27;20262;-56
2023/01/12 07:15:26;;;;;;;7.93;7.03;;;;;;;8.72;74.14;99740.34;5113781;27;20221;-56
2023/01/12 07:17:56;;;;;;;8.95;7.88;;;;;;;8.72;74.30;99746.34;5110041;27;20438;-55
2023/01/12 07:20:23;;;;;;;7.60;6.83;;;;;;;8.84;73.72;99749.22;5114919;28;20190;-56
2023/01/12 07:22:50;;;;;;;7.07;6.37;;;;;;;8.87;73.02;99746.75;5115251;28;20198;-56
2023/01/12 07:25:17;;;;;;;7.00;5.90;;;;;;;8.68;72.76;99729.13;5115430;28;20200;-56
2023/01/12 07:27:50;;;;;;;7.90;5.73;;;;;;;8.75;72.66;99754.13;5114688;28;20196;-56
2023/01/12 07:30:18;;;;;;;6.23;5.63;;;;;;;8.60;73.08;99746.00;5115576;28;20280;-56
2023/01/12 07:32:44;;;;;;;7.50;6.27;;;;;;;8.68;73.95;99752.19;5115384;28;20194;-56
2023/01/12 07:35:11;;;;;;;7.50;6.10;;;;;;;8.69;73.84;99753.94;5115240;28;20692;-55
2023/01/12 07:37:38;;;;;;;6.80;6.10;;;;;;;8.71;72.79;99759.97;5115154;28;20526;-57
2023/01/12 07:40:06;;;;;;;6.83;6.07;;;;;;;8.74;73.56;99754.94;5113100;28;20189;-57
2023/01/12 07:42:32;;;;;;;6.30;5.70;;;;;;;8.69;73.07;99751.38;5113826;28;20220;-56
2023/01/12 07:45:00;;;;;;;7.78;7.00;;;;;;;8.76;73.99;99760.09;5114208;28;20443;-56
2023/01/12 07:47:27;;;;;;;7.87;6.00;;;;;;;8.85;73.32;99761.22;5115185;28;20526;-56
2023/01/12 07:49:54;;;;;;;8.20;6.87;;;;;;;8.86;72.60;99765.53;5114951;28;20552;-56
2023/01/12 07:52:21;;;;;;;7.67;6.63;;;;;;;8.82;73.07;99778.19;5113750;28;20686;-56
2023/01/12 07:54:48;;;;;;;10.55;8.15;;;;;;;8.97;73.15;99772.63;5113558;28;20975;-56
2023/01/12 07:57:14;;;;;;;9.80;7.90;;;;;;;8.86;71.95;99747.59;5114999;28;20229;-56
2023/01/12 07:59:41;;;;;;;9.47;6.83;;;;;;;9.01;71.69;99780.41;5113808;28;20572;-56
2023/01/12 08:02:15;;;;;;;8.57;6.87;;;;;;;8.90;71.56;99785.25;5114695;28;20197;-56
2023/01/12 08:04:42;;;;;;;8.53;7.63;;;;;;;8.94;72.40;99782.78;5112930;28;20584;-56
2023/01/12 08:07:08;;;;;;;9.43;8.43;;;;;;;9.03;73.07;99783.03;5112715;28;20186;-57
2023/01/12 08:09:35;;;;;;;8.40;6.83;;;;;;;9.11;71.22;99784.13;5112655;28;20189;-57
2023/01/12 08:12:02;;;;;;;9.53;7.47;;;;;;;9.09;71.82;99785.78;5113299;28;20242;-56
2023/01/12 08:14:32;;;;;;;8.27;7.40;;;;;;;9.05;71.26;99784.81;5112955;28;20228;-55
2023/01/12 08:17:02;;;;;;;9.10;7.17;;;;;;;9.18;71.53;99780.88;5113224;28;20247;-56
2023/01/12 08:19:37;;;;;;;9.77;8.77;;;;;;;9.24;71.15;99783.59;5113681;28;20244;-55
2023/01/12 08:22:09;;;;;;;8.23;7.43;;;;;;;9.34;70.97;99781.31;5114664;28;20189;-55
2023/01/12 08:24:41;;;;;;;8.47;7.57;;;;;;;9.34;70.11;99776.19;5114618;28;20225;-55
2023/01/12 08:27:09;;;;;;;8.03;7.00;;;;;;;9.38;69.48;99785.69;5114401;28;20270;-55
2023/01/12 08:29:40;;;;;;;9.20;7.07;;;;;;;9.38;69.83;99789.94;5114232;28;20204;-55
2023/01/12 08:32:09;;;;;;;7.80;6.87;;;;;;;9.40;70.80;99778.03;5114845;28;20194;-56
2023/01/12 08:34:40;;;;;;;7.60;6.27;;;;;;;9.56;70.13;99785.28;5114178;28;20225;-55
2023/01/12 08:37:12;;;;;;;7.00;6.30;;;;;;;9.49;69.17;99784.28;5113576;28;20197;-55
2023/01/12 08:39:38;;;;;;;9.67;6.40;;;;;;;9.62;69.52;99787.13;5113828;28;20193;-55
2023/01/12 08:42:06;;;;;;;7.93;6.27;;;;;;;9.70;68.90;99786.47;5113793;28;20182;-56
2023/01/12 08:44:33;;;;;;;7.03;6.30;;;;;;;9.73;68.44;99788.25;5113447;28;20237;-56
2023/01/12 08:47:01;;;;;;;10.80;6.37;;;;;;;9.79;68.97;99788.41;5113583;28;20197;-56
2023/01/12 08:49:29;;;;;;;9.53;6.17;;;;;;;9.80;67.79;99785.91;5113665;28;20258;-56
2023/01/12 08:51:58;;;;;;;5.77;5.00;;;;;;;9.80;67.45;99796.16;5113560;28;20602;-55
2023/01/12 08:54:25;;;;;;;6.53;4.97;;;;;;;9.49;67.01;99743.25;5113627;28;20214;-57
2023/01/12 08:56:53;;;;;;;8.20;5.27;;;;;;;9.75;67.64;99782.31;5113416;28;20622;-56
2023/01/12 08:59:20;;;;;;;5.93;5.10;;;;;;;9.77;66.67;99777.25;5113690;28;20285;-56
2023/01/12 09:01:47;;;;;;;6.20;5.33;;;;;;;9.81;66.37;99774.78;5113259;28;20239;-56
2023/01/12 09:04:14;;;;;;;9.17;6.40;;;;;;;9.92;66.65;99775.91;5113513;28;20553;-56
2023/01/12 09:06:42;;;;;;;12.83;7.20;;;;;;;10.00;66.78;99776.06;5113591;28;20190;-56
2023/01/12 09:09:13;;;;;;;7.70;5.03;;;;;;;10.00;64.21;99782.06;5113489;28;20197;-57
2023/01/12 09:11:42;;;;;;;6.77;5.47;;;;;;;9.84;64.75;99763.72;5114157;28;20618;-56
2023/01/12 09:14:09;;;;;;;6.90;5.37;;;;;;;9.85;64.90;99745.81;5113184;28;20652;-55
2023/01/12 09:16:36;;;;;;;6.17;5.57;;;;;;;9.86;64.58;99754.38;5113613;28;20186;-56
2023/01/12 09:19:03;;;;;;;7.57;5.70;;;;;;;9.96;65.41;99777.72;5113267;28;20191;-56
2023/01/12 09:21:31;;;;;;;6.43;5.47;;;;;;;9.95;65.90;99782.81;5113387;28;20186;-56
2023/01/12 09:23:58;;;;;;;7.63;6.23;;;;;;;9.93;65.25;99785.34;5113060;28;20668;-56
2023/01/12 09:26:30;;;;;;;6.63;5.03;;;;;;;9.78;65.36;99776.44;5112263;28;20243;-55
2023/01/12 09:28:58;;;;;;;6.07;5.47;;;;;;;9.85;65.06;99780.84;5112684;28;20198;-56
2023/01/12 09:31:26;;;;;;;7.63;5.93;;;;;;;9.85;65.31;99780.84;5112937;28;20314;-57
2023/01/12 09:33:53;;;;;;;8.13;6.00;;;;;;;9.86;65.47;99772.34;5112838;28;20208;-55
2023/01/12 09:36:22;;;;;;;7.27;6.10;;;;;;;10.13;64.55;99773.00;5112738;28;20638;-56
2023/01/12 09:38:49;;;;;;;6.67;5.10;;;;;;;10.25;63.42;99772.38;5113474;28;20625;-55
2023/01/12 09:46:57;;;;;;;5.97;5.33;;;;;;;9.81;62.45;99695.22;5112972;28;20223;-56
2023/01/12 09:47:02;;;;;;;6.10;5.50;;;;;;;10.29;61.70;99769.94;5112849;28;20197;-57
2023/01/12 09:49:33;;;;;;;6.53;5.60;;;;;;;10.38;61.81;99764.13;5112768;28;20603;-55
2023/01/12 09:52:06;;;;;;;10.53;6.27;;;;;;;10.50;62.06;99759.22;5112396;28;20644;-56
2023/01/12 09:54:34;;;;;;;10.57;6.13;;;;;;;10.45;61.97;99760.84;5112346;28;20217;-55
2023/01/12 09:57:11;;;;;;;7.57;6.30;;;;;;;10.38;61.69;99741.00;5112413;28;20229;-55
2023/01/12 09:59:54;;;;;;;8.67;5.50;;;;;;;10.42;62.59;99746.22;5112231;28;20185;-56
2023/01/12 10:02:20;;;;;;;9.37;6.00;;;;;;;10.36;61.81;99733.25;5112598;28;20656;-56
2023/01/12 10:04:49;;;;;;;8.03;6.20;;;;;;;10.48;61.79;99745.50;5112274;28;20193;-56
2023/01/12 10:07:18;;;;;;;10.10;7.00;;;;;;;10.56;61.84;99749.09;5112296;28;20197;-57
2023/01/12 10:09:45;;;;;;;9.80;6.63;;;;;;;10.60;61.51;99751.72;5112252;28;20220;-55
2023/01/12 10:12:22;;;;;;;9.63;6.27;;;;;;;10.76;61.88;99745.22;5112359;28;20208;-56
2023/01/12 10:15:14;;;;;;;7.03;6.10;;;;;;;10.90;61.36;99740.34;5112062;28;20304;-55
2023/01/12 10:17:47;;;;;;;5.97;5.20;;;;;;;10.63;60.66;99736.38;5112535;28;20251;-55
2023/01/12 10:20:21;;;;;;;5.90;5.30;;;;;;;10.72;60.78;99742.53;5112164;28;20186;-56
2023/01/12 10:22:52;;;;;;;6.33;5.70;;;;;;;10.70;61.23;99736.50;5112751;28;20251;-56
2023/01/12 10:25:27;;;;;;;6.87;6.07;;;;;;;10.81;61.45;99738.44;5111926;28;20273;-55
2023/01/12 10:27:57;;;;;;;7.63;6.67;;;;;;;10.91;61.12;99737.78;5111977;28;20181;-55
2023/01/12 10:30:30;;;;;;;7.27;6.30;;;;;;;10.77;61.45;99713.53;5112064;28;20517;-56
2023/01/12 10:32:57;;;;;;;9.80;7.20;;;;;;;10.96;60.80;99732.75;5111798;28;20251;-56
2023/01/12 10:35:25;;;;;;;7.40;6.53;;;;;;;11.03;60.59;99729.44;5111921;28;20217;-56
2023/01/12 10:37:54;;;;;;;12.23;9.13;;;;;;;10.96;60.21;99720.72;5112196;28;20279;-56
2023/01/12 10:40:32;;;;;;;20.67;7.20;;;;;;;11.00;60.94;99722.53;5115956;28;20614;-56
2023/01/12 10:43:30;;;;;;;8.13;6.33;;;;;;;11.03;60.93;99726.88;5116569;28;20186;-55
2023/01/12 10:46:10;;;;;;;7.57;6.30;;;;;;;10.86;60.67;99710.25;5116811;28;20190;-58
2023/01/12 10:48:38;;;;;;;10.40;5.80;;;;;;;11.06;60.54;99714.06;5116383;28;20193;-56
2023/01/12 10:51:07;;;;;;;9.73;6.87;;;;;;;11.15;59.77;99712.50;5116105;28;20250;-56
2023/01/12 10:53:44;;;;;;;7.37;5.77;;;;;;;11.21;59.46;99715.19;5115964;28;20641;-57
2023/01/12 10:56:14;;;;;;;10.30;6.33;;;;;;;11.21;60.01;99710.03;5106105;28;20668;-56
2023/01/12 10:58:43;;;;;;;7.90;6.10;;;;;;;11.23;59.71;99707.50;5107626;28;20584;-56
2023/01/12 11:01:14;;;;;;;6.80;5.43;;;;;;;11.20;59.36;99713.47;5095307;28;20711;-55
2023/01/12 11:03:41;;;;;;;5.90;5.03;;;;;;;11.22;58.69;99714.34;5101601;28;20281;-55
2023/01/12 11:06:32;;;;;;;8.03;5.10;;;;;;;11.10;58.49;99708.13;5115725;28;20610;-56
2023/01/12 11:09:16;;;;;;;5.80;5.20;;;;;;;11.09;59.28;99707.28;5100608;28;20194;-56
2023/01/12 11:11:43;;;;;;;7.70;5.43;;;;;;;11.15;59.63;99701.38;5116195;28;20194;-55
2023/01/12 11:14:23;;;;;;;6.40;5.53;;;;;;;11.05;58.81;99682.34;5109291;28;20194;-56
2023/01/12 11:16:51;;;;;;;5.87;5.27;;;;;;;11.30;58.75;99705.88;5115202;28;20222;-57
2023/01/12 11:19:21;;;;;;;7.27;5.37;;;;;;;11.30;58.34;99691.31;5113958;28;20183;-57
2023/01/12 11:21:54;;;;;;;6.27;5.53;;;;;;;11.51;57.86;99706.25;5114283;28;20186;-56
2023/01/12 11:24:34;;;;;;;7.70;5.80;;;;;;;11.52;58.24;99698.56;5115559;28;20193;-56
2023/01/12 11:27:06;;;;;;;7.07;5.97;;;;;;;11.60;58.11;99698.66;5113700;28;20273;-56
2023/01/12 11:29:39;;;;;;;12.93;6.77;;;;;;;11.66;58.02;99701.34;5114730;28;20197;-56
2023/01/12 11:32:14;;;;;;;6.90;5.43;;;;;;;11.64;57.51;99693.59;5115353;28;20198;-56
2023/01/12 11:34:54;;;;;;;8.33;6.03;;;;;;;11.45;58.77;99677.84;5114912;28;20189;-56
2023/01/12 11:37:21;;;;;;;7.43;5.73;;;;;;;11.63;58.34;99691.00;5114897;28;20190;-56
2023/01/12 11:39:52;;;;;;;5.93;5.33;;;;;;;11.62;57.82;99694.44;5111292;28;20191;-56
2023/01/12 11:45:14;;;;;;;7.60;6.30;;;;;;;11.67;58.39;99678.19;5104512;28;20212;-56
2023/01/12 11:47:47;;;;;;;8.63;6.10;;;;;;;11.72;58.99;99675.72;5106085;28;20721;-56
2023/01/12 11:50:17;;;;;;;8.50;6.83;;;;;;;11.85;59.42;99682.78;5113747;28;20286;-56
2023/01/12 11:52:44;;;;;;;12.27;6.80;;;;;;;11.82;58.93;99669.84;5114728;28;20248;-57
2023/01/12 11:55:16;;;;;;;6.57;5.60;;;;;;;11.82;57.92;99657.84;5096843;28;21138;-56
2023/01/12 11:57:53;;;;;;;9.80;6.30;;;;;;;11.81;58.51;99665.56;5114235;28;20226;-57
2023/01/12 12:00:31;;;;;;;9.70;6.97;;;;;;;11.82;58.66;99665.56;5114761;28;20648;-57
2023/01/12 12:03:23;;;;;;;10.40;7.90;;;;;;;11.90;58.86;99655.38;5114304;28;20186;-57
2023/01/12 12:05:58;;;;;;;7.63;6.17;;;;;;;11.92;58.05;99655.41;5094279;28;20278;-56
2023/01/12 12:08:39;;;;;;;11.70;7.30;;;;;;;11.93;58.89;99651.97;5100272;28;20715;-59
2023/01/12 12:11:16;;;;;;;9.27;5.93;;;;;;;11.99;58.30;99655.50;5108857;28;20201;-56
2023/01/12 12:13:53;;;;;;;8.80;6.83;;;;;;;12.05;58.37;99658.16;5112091;28;20194;-56
2023/01/12 12:16:30;;;;;;;8.80;6.10;;;;;;;12.01;57.88;99653.81;5112341;28;20354;-56
2023/01/12 12:19:16;;;;;;;8.53;6.33;;;;;;;11.93;57.63;99663.13;5113745;28;20667;-56